< < Back
Terminal Aerodrome Forecast


Current Version              Previous Versions:   1  2  3  4  5  6  7  8  9  

Terminal Aerodrome Forecast

398
FTUS42 KILM 181100
TAFILM
TAF
KILM 181120Z 1812/1912 33004KT P6SM FEW040 BKN250
     FM181400 01007KT P6SM SCT140 BKN250
     FM182300 VRB03KT P6SM BKN120=



Latest METAR

258
SAUS70 KWBC 181800 RRA
MTRILM
METAR KILM 181753Z 02003KT 10SM CLR 13/M02 A3012 RMK AO2 SLP200 I6000
T01331022 10133 20022 58019


USA.gov is the U.S. government's official web portal to all federal, state and local government web resources and services.